Time;durP1;ratioP1;P1;durP2;ratioP2;P2;SDS_P1;SDS_P2;PMS_P1;PMS_P2;Temp;Humidity;BMP_temperature;BMP_pressure;BME280_temperature;BME280_humidity;BME280_pressure;Samples;Min_cycle;Max_cycle;Signal;HPM_P1;HPM_P2
2023/05/30 00:00:32;;;;;;;1999.90;999.90;;;18.20;99.90;;;;;;5034485;28;20018;-81
2023/05/30 00:02:58;;;;;;;1999.90;999.90;;;18.20;99.90;;;;;;5013083;28;20030;-81
2023/05/30 00:05:23;;;;;;;1999.90;999.90;;;18.10;99.90;;;;;;5014914;28;20029;-81
2023/05/30 00:07:49;;;;;;;1999.90;999.90;;;18.10;99.90;;;;;;5014550;28;20034;-81
2023/05/30 00:10:15;;;;;;;1999.90;999.90;;;18.00;99.90;;;;;;5032608;28;20025;-81
2023/05/30 00:12:41;;;;;;;1999.90;999.90;;;18.00;99.90;;;;;;5033457;28;20040;-81
2023/05/30 00:15:08;;;;;;;1999.90;999.90;;;17.90;99.90;;;;;;5033784;28;20448;-81
2023/05/30 00:17:35;;;;;;;1999.90;999.90;;;17.90;99.90;;;;;;5034280;28;20033;-81
2023/05/30 00:20:04;;;;;;;1999.90;999.90;;;17.90;99.90;;;;;;5034186;28;20373;-81
2023/05/30 00:22:30;;;;;;;1999.90;999.90;;;17.90;99.90;;;;;;5034066;28;20105;-81
2023/05/30 00:24:59;;;;;;;1999.90;999.90;;;17.90;99.90;;;;;;5034244;28;20064;-81
2023/05/30 00:27:25;;;;;;;1999.90;999.90;;;17.90;99.90;;;;;;5034109;28;20013;-81
2023/05/30 00:29:51;;;;;;;1999.90;999.90;;;17.80;99.90;;;;;;5016067;28;20029;-81
2023/05/30 00:32:17;;;;;;;1999.90;999.90;;;17.80;99.90;;;;;;5034224;28;20096;-81
2023/05/30 00:34:42;;;;;;;1999.90;999.90;;;17.80;99.90;;;;;;5033673;28;20528;-81
2023/05/30 00:37:08;;;;;;;1999.90;999.90;;;17.80;99.90;;;;;;5033276;28;20571;-81
2023/05/30 00:39:35;;;;;;;1999.90;999.90;;;17.70;99.90;;;;;;5015991;28;20427;-81
2023/05/30 00:42:01;;;;;;;1999.90;999.90;;;17.70;99.90;;;;;;5033731;28;20018;-81
2023/05/30 00:44:27;;;;;;;1999.90;999.90;;;17.70;99.90;;;;;;5033843;28;20026;-81
2023/05/30 00:46:53;;;;;;;1999.90;999.90;;;17.70;99.90;;;;;;5015949;28;20029;-81
2023/05/30 00:49:19;;;;;;;1999.90;999.90;;;17.70;99.90;;;;;;5033808;28;20030;-81
2023/05/30 00:51:46;;;;;;;1999.90;999.90;;;17.60;99.90;;;;;;5033572;28;20028;-81
2023/05/30 00:54:12;;;;;;;1999.90;999.90;;;17.60;99.90;;;;;;5033597;28;20029;-81
2023/05/30 00:56:38;;;;;;;1999.90;999.90;;;17.60;99.90;;;;;;5016005;28;20041;-81
2023/05/30 00:59:05;;;;;;;1999.90;999.90;;;17.60;99.90;;;;;;5033424;28;20033;-81
2023/05/30 01:01:32;;;;;;;1999.90;999.90;;;17.50;99.90;;;;;;5015588;28;20124;-81
2023/05/30 01:03:59;;;;;;;1999.90;999.90;;;17.50;99.90;;;;;;5033160;28;20018;-81
2023/05/30 01:06:27;;;;;;;1999.90;999.90;;;17.50;99.90;;;;;;5033860;28;20079;-81
2023/05/30 01:08:54;;;;;;;1999.90;999.90;;;17.40;99.90;;;;;;5015234;28;20025;-81
2023/05/30 01:11:37;;;;;;;1999.90;999.90;;;17.40;99.90;;;;;;5015573;28;20030;-81
2023/05/30 01:14:11;;;;;;;1999.90;999.90;;;17.30;99.90;;;;;;5015396;28;20552;-81
2023/05/30 01:16:43;;;;;;;1999.90;999.90;;;17.30;99.90;;;;;;5032440;28;20031;-81
2023/05/30 01:19:47;;;;;;;1999.90;999.90;;;17.30;99.90;;;;;;5033092;28;20025;-81
2023/05/30 01:22:36;;;;;;;1999.90;999.90;;;17.20;99.90;;;;;;5033281;28;20104;-81
2023/05/30 01:25:21;;;;;;;1999.90;999.90;;;17.20;99.90;;;;;;5033252;28;20096;-81
2023/05/30 01:28:05;;;;;;;1999.90;999.90;;;17.20;99.90;;;;;;5032586;28;20052;-81
2023/05/30 01:30:32;;;;;;;1999.90;999.90;;;17.20;99.90;;;;;;5032890;28;20515;-81
2023/05/30 01:32:59;;;;;;;1999.90;999.90;;;17.20;99.90;;;;;;5015249;28;20540;-81
2023/05/30 01:35:25;;;;;;;1999.90;999.90;;;17.20;99.90;;;;;;5015010;28;20053;-81
2023/05/30 01:37:50;;;;;;;1999.90;999.90;;;17.10;99.90;;;;;;5033009;28;20551;-81
2023/05/30 01:40:21;;;;;;;1999.90;999.90;;;17.10;99.90;;;;;;5033043;28;20036;-81
2023/05/30 01:42:52;;;;;;;1999.90;999.90;;;17.00;99.90;;;;;;5032948;28;20083;-81
2023/05/30 01:45:27;;;;;;;1999.90;999.90;;;17.00;99.90;;;;;;5032772;28;20481;-81
2023/05/30 01:48:06;;;;;;;1999.90;999.90;;;17.00;99.90;;;;;;5032543;28;20029;-81
2023/05/30 01:50:40;;;;;;;1999.90;999.90;;;16.90;99.90;;;;;;5032834;28;20025;-81
2023/05/30 01:53:11;;;;;;;1999.90;999.90;;;16.90;99.90;;;;;;5032806;28;20523;-81
2023/05/30 01:55:41;;;;;;;1999.90;999.90;;;16.90;99.90;;;;;;5032757;28;20124;-81
2023/05/30 01:58:08;;;;;;;1999.90;999.90;;;16.90;99.90;;;;;;5015085;28;20480;-81
2023/05/30 02:00:34;;;;;;;1999.90;999.90;;;16.90;99.90;;;;;;5032600;28;20052;-81
2023/05/30 02:03:00;;;;;;;1999.90;999.90;;;16.90;99.90;;;;;;5011397;28;20026;-81
2023/05/30 02:05:25;;;;;;;1999.90;999.90;;;16.90;99.90;;;;;;5012958;28;20025;-81
2023/05/30 02:07:51;;;;;;;1999.90;999.90;;;16.90;99.90;;;;;;5013025;28;20393;-81
2023/05/30 02:10:16;;;;;;;1999.90;999.90;;;16.80;99.90;;;;;;5032264;28;20140;-81
2023/05/30 02:12:42;;;;;;;1999.90;999.90;;;16.80;99.90;;;;;;5014965;28;20041;-81
2023/05/30 02:15:08;;;;;;;1999.90;999.90;;;16.80;99.90;;;;;;5014878;28;20503;-81
2023/05/30 02:17:34;;;;;;;1999.90;999.90;;;16.70;99.90;;;;;;5031717;28;20068;-81
2023/05/30 02:19:59;;;;;;;1999.90;999.90;;;16.80;99.90;;;;;;5032357;28;20384;-81
2023/05/30 02:22:25;;;;;;;1999.90;999.90;;;16.70;99.90;;;;;;5014616;28;20075;-81
2023/05/30 02:24:52;;;;;;;1999.90;999.90;;;16.70;99.90;;;;;;5014818;28;20021;-81
2023/05/30 02:27:17;;;;;;;1999.90;999.90;;;16.70;99.90;;;;;;5032757;28;20025;-81
2023/05/30 02:29:43;;;;;;;1999.90;999.90;;;16.70;99.90;;;;;;5014773;28;20025;-81
2023/05/30 02:32:09;;;;;;;1999.90;999.90;;;16.70;99.90;;;;;;5033148;28;20408;-81
2023/05/30 02:34:35;;;;;;;1999.90;999.90;;;16.70;99.90;;;;;;5034806;28;20373;-81
2023/05/30 02:37:00;;;;;;;1999.90;999.90;;;16.70;99.90;;;;;;5018314;28;20378;-81
2023/05/30 02:39:26;;;;;;;1999.90;999.90;;;16.60;99.90;;;;;;5035896;28;20095;-82
2023/05/30 02:41:51;;;;;;;1999.90;999.90;;;16.60;99.90;;;;;;5036071;28;20083;-81
2023/05/30 02:44:17;;;;;;;1999.90;999.90;;;16.60;99.90;;;;;;5035984;28;20100;-81
2023/05/30 02:46:42;;;;;;;1999.90;999.90;;;16.60;99.90;;;;;;5035658;28;20029;-81
2023/05/30 02:49:08;;;;;;;1999.90;999.90;;;16.60;99.90;;;;;;5035880;28;20022;-81
2023/05/30 02:51:35;;;;;;;1999.90;999.90;;;16.60;99.90;;;;;;5018156;28;20036;-81
2023/05/30 02:54:01;;;;;;;1999.90;999.90;;;16.60;99.90;;;;;;5035820;28;20021;-81
2023/05/30 02:56:27;;;;;;;1999.90;999.90;;;16.50;99.90;;;;;;5036059;28;20449;-81
2023/05/30 02:58:54;;;;;;;1999.90;999.90;;;16.60;99.90;;;;;;5036054;28;20025;-81
2023/05/30 03:01:20;;;;;;;1999.90;999.90;;;16.50;99.90;;;;;;5035697;28;20060;-81
2023/05/30 03:03:45;;;;;;;1999.90;999.90;;;16.50;99.90;;;;;;5035338;28;20389;-81
2023/05/30 03:06:13;;;;;;;1999.90;999.90;;;16.40;99.90;;;;;;5035702;28;20108;-81
2023/05/30 03:08:42;;;;;;;1999.90;999.90;;;16.40;99.90;;;;;;5035631;28;20014;-81
2023/05/30 03:11:08;;;;;;;1999.90;999.90;;;16.40;99.90;;;;;;5035558;28;20033;-81
2023/05/30 03:13:33;;;;;;;1999.90;999.90;;;16.40;99.90;;;;;;5035851;28;20033;-81
2023/05/30 03:15:59;;;;;;;1999.90;999.90;;;16.40;99.90;;;;;;5035339;28;20423;-81
2023/05/30 03:18:25;;;;;;;1999.90;999.90;;;16.30;99.90;;;;;;5034660;28;20033;-81
2023/05/30 03:20:50;;;;;;;1999.90;999.90;;;16.30;99.90;;;;;;5035434;28;20033;-84
2023/05/30 03:23:16;;;;;;;1999.90;999.90;;;16.30;99.90;;;;;;5035486;28;20018;-84
2023/05/30 03:25:42;;;;;;;1999.90;999.90;;;16.20;99.90;;;;;;5035330;28;20172;-83
2023/05/30 03:28:07;;;;;;;1999.90;999.90;;;16.10;99.90;;;;;;5035181;28;20049;-83
2023/05/30 03:30:33;;;;;;;1999.90;999.90;;;16.10;99.90;;;;;;5017308;28;20109;-84
2023/05/30 03:32:59;;;;;;;1999.90;999.90;;;16.10;99.90;;;;;;5035481;28;20100;-83
2023/05/30 03:35:25;;;;;;;1999.90;999.90;;;16.10;99.90;;;;;;5034866;28;20054;-83
2023/05/30 03:37:50;;;;;;;1999.90;999.90;;;16.00;99.90;;;;;;5035185;28;20515;-83
2023/05/30 03:40:16;;;;;;;1999.90;999.90;;;16.00;99.90;;;;;;5034875;28;20029;-83
2023/05/30 03:42:42;;;;;;;1999.90;999.90;;;15.90;99.90;;;;;;5034947;28;20025;-83
2023/05/30 03:45:08;;;;;;;1999.90;999.90;;;15.90;99.90;;;;;;5033898;28;20104;-83
2023/05/30 03:47:33;;;;;;;1999.90;999.90;;;15.80;99.90;;;;;;5034767;28;20535;-83
2023/05/30 03:50:00;;;;;;;1999.90;999.90;;;15.80;99.90;;;;;;5034936;28;20396;-83
2023/05/30 03:52:25;;;;;;;1999.90;999.90;;;15.70;99.90;;;;;;5034743;28;20018;-83
2023/05/30 03:54:51;;;;;;;1999.90;999.90;;;15.60;99.90;;;;;;5034735;28;20080;-83
2023/05/30 03:57:17;;;;;;;1999.90;999.90;;;15.60;99.90;;;;;;5034848;28;20057;-83
2023/05/30 03:59:45;;;;;;;1999.90;999.90;;;15.60;99.90;;;;;;5034501;28;20056;-83
2023/05/30 04:02:11;;;;;;;1999.90;999.90;;;15.50;99.90;;;;;;5016475;28;20369;-83
2023/05/30 04:04:37;;;;;;;1999.90;999.90;;;15.50;99.90;;;;;;5034314;28;20033;-83
2023/05/30 04:07:03;;;;;;;1999.90;999.90;;;15.40;99.90;;;;;;5034632;28;20104;-83
2023/05/30 04:09:29;;;;;;;1999.90;999.90;;;15.30;99.90;;;;;;5016156;28;20067;-83
2023/05/30 04:11:54;;;;;;;1999.90;999.90;;;15.30;99.90;;;;;;5034497;28;20017;-83
2023/05/30 04:14:20;;;;;;;1999.90;999.90;;;15.30;99.90;;;;;;5034498;28;20022;-83
2023/05/30 04:16:45;;;;;;;1999.90;999.90;;;15.20;99.90;;;;;;5034344;28;20028;-83
2023/05/30 04:19:11;;;;;;;1999.90;999.90;;;15.30;99.90;;;;;;5014727;28;20056;-83
2023/05/30 04:21:37;;;;;;;1999.90;999.90;;;15.20;99.90;;;;;;5034259;28;20021;-83
2023/05/30 04:24:03;;;;;;;1999.90;999.90;;;15.20;99.90;;;;;;5034081;28;20029;-83
2023/05/30 04:26:31;;;;;;;1999.90;999.90;;;15.20;99.90;;;;;;5034279;28;20049;-83
2023/05/30 04:28:57;;;;;;;1999.90;999.90;;;15.20;99.90;;;;;;5034038;28;20064;-83
2023/05/30 04:31:23;;;;;;;1999.90;999.90;;;15.20;99.90;;;;;;5034128;28;20033;-84
2023/05/30 04:33:50;;;;;;;1999.90;999.90;;;15.20;99.90;;;;;;5034023;28;20400;-83
2023/05/30 04:36:19;;;;;;;1999.90;999.90;;;15.20;99.90;;;;;;5012673;28;20429;-83
2023/05/30 04:38:49;;;;;;;1999.90;999.90;;;15.30;99.90;;;;;;5014144;28;20556;-83
2023/05/30 04:41:20;;;;;;;1999.90;999.90;;;15.30;99.90;;;;;;5014227;28;20098;-83
2023/05/30 04:43:54;;;;;;;1999.90;999.90;;;15.40;99.90;;;;;;5013806;28;20061;-83
2023/05/30 04:46:23;;;;;;;1999.90;999.90;;;15.30;99.90;;;;;;5013834;28;20050;-83
2023/05/30 04:48:53;;;;;;;1999.90;999.90;;;15.30;99.90;;;;;;5014069;28;20545;-83
2023/05/30 04:51:20;;;;;;;1999.90;999.90;;;15.30;99.90;;;;;;5012749;28;20112;-83
2023/05/30 04:53:46;;;;;;;1999.90;999.90;;;15.30;99.90;;;;;;5012316;28;20057;-84
2023/05/30 04:56:11;;;;;;;1999.90;999.90;;;15.30;99.90;;;;;;5012160;28;20072;-83
2023/05/30 04:58:37;;;;;;;1999.90;999.90;;;15.40;99.90;;;;;;5013773;28;20030;-83
2023/05/30 05:01:03;;;;;;;1999.90;999.90;;;15.40;99.90;;;;;;5013717;28;20030;-83
2023/05/30 05:03:28;;;;;;;1999.90;999.90;;;15.40;99.90;;;;;;4997435;28;20541;-83
2023/05/30 05:05:54;;;;;;;1999.90;999.90;;;15.40;99.90;;;;;;4992599;28;20387;-83
2023/05/30 05:08:20;;;;;;;1999.90;999.90;;;15.40;99.90;;;;;;4994121;28;20073;-83
2023/05/30 05:10:46;;;;;;;1999.90;999.90;;;15.50;99.90;;;;;;4993754;28;20027;-83
2023/05/30 05:13:11;;;;;;;1999.90;999.90;;;15.50;99.90;;;;;;4993548;28;20468;-83
2023/05/30 05:15:37;;;;;;;1999.90;999.90;;;15.50;99.90;;;;;;4993873;28;20027;-83
2023/05/30 05:18:03;;;;;;;1999.90;999.90;;;15.60;99.90;;;;;;4992755;28;20072;-83
2023/05/30 05:20:28;;;;;;;1999.90;999.90;;;15.60;99.90;;;;;;4993691;28;20394;-83
2023/05/30 05:22:55;;;;;;;1999.90;999.90;;;15.70;99.90;;;;;;4993903;28;20054;-83
2023/05/30 05:25:21;;;;;;;1999.90;999.90;;;15.70;99.90;;;;;;4992833;28;20023;-83
2023/05/30 05:27:47;;;;;;;1999.90;999.90;;;15.70;99.90;;;;;;4993516;28;20101;-83
2023/05/30 05:30:12;;;;;;;1999.90;999.90;;;15.70;99.90;;;;;;4992255;28;20165;-83
2023/05/30 05:32:41;;;;;;;1999.90;999.90;;;15.80;99.90;;;;;;4993731;28;20037;-83
2023/05/30 05:35:09;;;;;;;1999.90;999.90;;;15.80;99.90;;;;;;5004973;28;20049;-83
2023/05/30 05:37:35;;;;;;;1999.90;999.90;;;15.90;99.90;;;;;;5031455;28;20146;-83
2023/05/30 05:40:05;;;;;;;1999.90;999.90;;;15.90;99.90;;;;;;5032280;28;20053;-83
2023/05/30 05:42:32;;;;;;;1999.90;999.90;;;16.00;99.90;;;;;;5011129;28;20108;-83
2023/05/30 05:44:57;;;;;;;1999.90;999.90;;;16.00;99.90;;;;;;5013252;28;20105;-83
2023/05/30 05:47:24;;;;;;;1999.90;999.90;;;16.10;99.90;;;;;;5029248;28;20076;-83
2023/05/30 05:49:51;;;;;;;1999.90;999.90;;;16.10;99.90;;;;;;5032462;28;20045;-83
2023/05/30 05:52:17;;;;;;;1999.90;999.90;;;16.20;99.90;;;;;;5032040;28;20030;-84
2023/05/30 05:54:42;;;;;;;1999.90;999.90;;;16.30;99.90;;;;;;5014689;28;20059;-83
2023/05/30 05:57:08;;;;;;;1999.90;999.90;;;16.30;99.90;;;;;;5032650;28;20539;-84
2023/05/30 05:59:34;;;;;;;1999.90;999.90;;;16.30;99.90;;;;;;5032210;28;20485;-84
2023/05/30 06:02:00;;;;;;;1999.90;999.90;;;16.40;99.90;;;;;;5032190;28;20037;-83
2023/05/30 06:04:25;;;;;;;1999.90;999.90;;;16.40;99.90;;;;;;5009209;28;20079;-83
2023/05/30 06:06:51;;;;;;;1999.90;999.90;;;16.50;99.90;;;;;;5019005;28;20034;-84
2023/05/30 06:09:17;;;;;;;1999.90;999.90;;;16.60;99.90;;;;;;5029166;28;20022;-84
2023/05/30 06:11:42;;;;;;;1999.90;999.90;;;16.60;99.90;;;;;;5022568;28;20048;-84
2023/05/30 06:14:08;;;;;;;1999.90;999.90;;;16.70;99.90;;;;;;5027660;28;20129;-84
2023/05/30 06:16:33;;;;;;;1999.90;999.90;;;16.80;99.90;;;;;;5032043;28;20037;-84
2023/05/30 06:18:59;;;;;;;1999.90;999.90;;;16.90;99.90;;;;;;5031877;28;20025;-85
2023/05/30 06:21:25;;;;;;;1999.90;999.90;;;16.90;99.90;;;;;;5016900;28;20462;-83
2023/05/30 06:23:50;;;;;;;1999.90;999.90;;;16.90;99.90;;;;;;5034541;28;20373;-84
2023/05/30 06:26:16;;;;;;;1999.90;999.90;;;17.00;99.90;;;;;;5029724;28;20033;-84
2023/05/30 06:28:42;;;;;;;1999.90;999.90;;;17.00;99.90;;;;;;5031440;28;20048;-83
2023/05/30 06:31:07;;;;;;;1999.90;999.90;;;17.10;99.90;;;;;;5027989;28;20029;-84
2023/05/30 06:33:33;;;;;;;1999.90;999.90;;;17.20;99.90;;;;;;5025775;28;20021;-83
2023/05/30 06:35:59;;;;;;;1999.90;999.90;;;17.30;99.90;;;;;;5026823;28;20935;-84
2023/05/30 06:38:25;;;;;;;1999.90;999.90;;;17.40;99.90;;;;;;5030096;28;20041;-84
2023/05/30 06:40:50;;;;;;;1999.90;999.90;;;17.40;99.90;;;;;;5033383;28;20481;-84
2023/05/30 06:43:16;;;;;;;1999.90;999.90;;;17.60;99.90;;;;;;5030147;28;20026;-78
2023/05/30 06:45:43;;;;;;;1999.90;999.90;;;17.60;99.90;;;;;;5011723;28;20038;-78
2023/05/30 06:48:08;;;;;;;1999.90;999.90;;;17.70;99.90;;;;;;5025291;28;20033;-77
2023/05/30 06:50:35;;;;;;;1999.90;999.90;;;17.70;99.90;;;;;;5013075;28;20098;-76
2023/05/30 06:53:01;;;;;;;1999.90;999.90;;;17.80;99.90;;;;;;5033611;28;20029;-76
2023/05/30 06:55:26;;;;;;;1999.90;999.90;;;18.00;99.90;;;;;;5032676;28;20029;-77
2023/05/30 06:57:55;;;;;;;1999.90;999.90;;;18.00;99.90;;;;;;5032119;28;20416;-77
2023/05/30 07:00:22;;;;;;;1999.90;999.90;;;18.20;99.90;;;;;;5016670;28;20120;-77
2023/05/30 07:02:47;;;;;;;1999.90;999.90;;;18.20;99.90;;;;;;5025577;28;20029;-77
2023/05/30 07:05:13;;;;;;;1999.90;999.90;;;18.20;99.90;;;;;;5012550;28;20538;-79
2023/05/30 07:07:41;;;;;;;1999.90;999.90;;;18.30;99.90;;;;;;5032081;28;20026;-78
2023/05/30 07:10:07;;;;;;;1999.90;999.90;;;18.30;99.90;;;;;;5028946;28;20038;-77
2023/05/30 07:12:33;;;;;;;1999.90;999.90;;;18.20;99.90;;;;;;5007118;28;20183;-79
2023/05/30 07:14:58;;;;;;;1999.90;999.90;;;18.40;99.90;;;;;;5030169;28;20104;-80
2023/05/30 07:17:24;;;;;;;1999.90;999.90;;;18.70;99.90;;;;;;5026217;28;20033;-79
2023/05/30 07:19:50;;;;;;;1999.90;999.90;;;18.90;99.90;;;;;;5021613;28;20033;-79
2023/05/30 07:22:15;;;;;;;1999.90;999.90;;;19.00;99.90;;;;;;5024400;28;20945;-79
2023/05/30 07:24:41;;;;;;;1999.90;999.90;;;19.30;99.90;;;;;;5030484;28;20029;-78
2023/05/30 07:27:07;;;;;;;1999.90;999.90;;;19.40;99.90;;;;;;5030127;28;20160;-78
2023/05/30 07:29:32;;;;;;;1999.90;999.90;;;19.50;99.90;;;;;;5031207;28;21430;-80
2023/05/30 07:31:58;;;;;;;1999.90;999.90;;;19.80;99.90;;;;;;5012436;28;20026;-80
2023/05/30 07:34:24;;;;;;;1999.90;999.90;;;21.00;99.90;;;;;;5022990;28;20106;-77
2023/05/30 07:36:50;;;;;;;1999.90;999.90;;;23.20;99.90;;;;;;5013286;28;20025;-76
2023/05/30 07:39:15;;;;;;;1999.90;999.90;;;24.70;99.90;;;;;;5025253;28;20668;-76
2023/05/30 07:41:41;;;;;;;1999.90;999.90;;;25.30;99.90;;;;;;5029104;28;20090;-76
2023/05/30 07:44:06;;;;;;;1999.90;999.90;;;25.30;99.90;;;;;;5030665;28;20064;-78
2023/05/30 07:46:32;;;;;;;1999.90;999.90;;;25.30;99.90;;;;;;5030400;28;20578;-77
2023/05/30 07:48:58;;;;;;;1999.90;999.90;;;25.60;99.90;;;;;;5010747;28;20041;-77
2023/05/30 07:51:23;;;;;;;1999.90;999.90;;;26.30;99.90;;;;;;5027428;28;20026;-78
2023/05/30 07:53:49;;;;;;;1999.90;999.90;;;26.50;99.90;;;;;;5029007;28;20420;-77
2023/05/30 07:56:15;;;;;;;1999.90;999.90;;;26.20;99.90;;;;;;5031317;28;20463;-77
2023/05/30 07:58:40;;;;;;;1999.90;999.90;;;26.80;99.90;;;;;;5030110;28;20029;-77
2023/05/30 08:01:06;;;;;;;1999.90;999.90;;;27.20;99.90;;;;;;5029577;28;20033;-77
2023/05/30 08:03:32;;;;;;;1999.90;999.90;;;27.70;99.90;;;;;;5007883;28;20087;-78
2023/05/30 08:05:57;;;;;;;1999.90;999.90;;;28.20;98.80;;;;;;5023028;28;20022;-77
2023/05/30 08:08:24;;;;;;;1999.90;999.90;;;28.50;98.30;;;;;;5026030;28;21036;-78
2023/05/30 08:10:49;;;;;;;1999.90;999.90;;;28.70;98.80;;;;;;5028673;28;20045;-77
2023/05/30 08:13:18;;;;;;;1999.90;999.90;;;29.50;96.90;;;;;;5027669;28;20389;-75
2023/05/30 08:15:44;;;;;;;1999.90;999.90;;;29.60;96.70;;;;;;5030729;28;20055;-75
2023/05/30 08:18:10;;;;;;;1999.90;999.90;;;29.90;96.00;;;;;;5041932;28;20082;-75
2023/05/30 08:20:36;;;;;;;1999.90;999.90;;;30.00;96.40;;;;;;5016062;28;20507;-76
2023/05/30 08:23:03;;;;;;;1999.90;999.90;;;30.20;95.30;;;;;;5033217;28;20347;-75
2023/05/30 08:25:35;;;;;;;1999.90;999.90;;;30.40;95.30;;;;;;5012987;28;20057;-76
2023/05/30 08:28:01;;;;;;;1999.90;999.90;;;30.00;96.40;;;;;;5029059;28;20432;-76
2023/05/30 08:30:26;;;;;;;1999.90;999.90;;;30.20;95.10;;;;;;5030313;28;20041;-75
2023/05/30 08:32:53;;;;;;;1999.90;999.90;;;30.30;95.20;;;;;;5030085;28;20041;-76
2023/05/30 08:35:19;;;;;;;1999.90;999.90;;;30.20;95.20;;;;;;5026863;28;20046;-78
2023/05/30 08:37:45;;;;;;;1999.90;999.90;;;30.60;95.40;;;;;;5012469;28;20400;-75
2023/05/30 08:40:12;;;;;;;1999.90;999.90;;;31.20;94.90;;;;;;5023244;28;20022;-75
2023/05/30 08:42:39;;;;;;;1999.90;999.90;;;31.40;94.10;;;;;;5008494;28;20026;-77
2023/05/30 08:45:06;;;;;;;1999.90;999.90;;;31.20;94.50;;;;;;5025000;28;20026;-76
2023/05/30 08:47:33;;;;;;;1999.90;999.90;;;30.90;94.20;;;;;;5028709;28;20536;-74
2023/05/30 08:50:01;;;;;;;1999.90;999.90;;;31.30;94.00;;;;;;5024176;28;20017;-75
2023/05/30 08:52:29;;;;;;;1999.90;999.90;;;31.40;94.50;;;;;;5028329;28;20025;-76
2023/05/30 08:55:15;;;;;;;1999.90;999.90;;;31.80;94.50;;;;;;5027162;28;20026;-76
2023/05/30 08:57:49;;;;;;;1999.90;999.90;;;32.10;93.60;;;;;;5028004;28;20018;-76
2023/05/30 09:00:16;;;;;;;1999.90;999.90;;;31.90;93.20;;;;;;5029117;28;20033;-75
2023/05/30 09:02:43;;;;;;;1999.90;999.90;;;32.00;93.50;;;;;;5013418;28;20037;-75
2023/05/30 09:05:10;;;;;;;1999.90;999.90;;;32.00;93.60;;;;;;5023333;28;20033;-75
2023/05/30 09:07:37;;;;;;;1999.90;999.90;;;32.20;93.20;;;;;;5024159;28;20032;-76
2023/05/30 09:10:04;;;;;;;1999.90;999.90;;;31.80;93.20;;;;;;5022914;28;20033;-75
2023/05/30 09:12:30;;;;;;;1999.90;999.90;;;31.80;93.10;;;;;;5023774;28;20037;-75
2023/05/30 09:14:56;;;;;;;1999.90;999.90;;;31.90;93.40;;;;;;5027898;28;20029;-75
2023/05/30 09:17:22;;;;;;;1999.90;999.90;;;32.00;93.70;;;;;;5028918;28;20024;-75
2023/05/30 09:19:48;;;;;;;1999.90;999.90;;;32.30;92.60;;;;;;5028646;28;20382;-75
2023/05/30 09:22:15;;;;;;;1999.90;999.90;;;32.30;93.40;;;;;;5027472;28;20026;-75
2023/05/30 09:25:00;;;;;;;1999.90;999.90;;;32.50;93.30;;;;;;5032102;28;20025;-76
2023/05/30 09:27:28;;;;;;;1999.90;999.90;;;32.60;92.50;;;;;;5026995;28;20033;-75
2023/05/30 09:29:54;;;;;;;1999.90;999.90;;;32.50;92.90;;;;;;5028163;28;20076;-75
2023/05/30 09:32:25;;;;;;;1999.90;999.90;;;32.70;92.90;;;;;;5029208;28;20026;-75
2023/05/30 09:34:56;;;;;;;1999.90;999.90;;;32.00;92.70;;;;;;5026192;28;20128;-77
2023/05/30 09:37:25;;;;;;;1999.90;999.90;;;31.80;93.30;;;;;;5025411;28;20037;-77
2023/05/30 09:40:07;;;;;;;1999.90;999.90;;;31.60;93.80;;;;;;5028142;28;20295;-76
2023/05/30 09:42:47;;;;;;;1999.90;999.90;;;32.00;94.00;;;;;;5028765;28;20029;-77
2023/05/30 09:45:15;;;;;;;1999.90;999.90;;;32.70;93.00;;;;;;5028874;28;20037;-77
2023/05/30 09:47:44;;;;;;;1999.90;999.90;;;32.70;92.90;;;;;;5029459;28;20039;-77
2023/05/30 09:50:12;;;;;;;1999.90;999.90;;;32.30;92.60;;;;;;5029110;28;20021;-76
2023/05/30 09:52:38;;;;;;;1999.90;999.90;;;32.60;92.60;;;;;;5018047;28;20501;-76
2023/05/30 09:55:06;;;;;;;1999.90;999.90;;;32.60;93.00;;;;;;5028343;28;20522;-76
2023/05/30 09:57:37;;;;;;;1999.90;999.90;;;32.20;92.60;;;;;;5028256;28;20022;-76
2023/05/30 10:00:11;;;;;;;1999.90;999.90;;;31.90;93.10;;;;;;5028628;28;20535;-77
2023/05/30 10:02:41;;;;;;;1999.90;999.90;;;32.20;93.20;;;;;;5023855;28;20055;-77
2023/05/30 10:05:19;;;;;;;1999.90;999.90;;;32.20;92.60;;;;;;5025619;28;20025;-76
2023/05/30 10:07:47;;;;;;;1999.90;999.90;;;32.00;93.40;;;;;;5027450;28;20404;-76
2023/05/30 10:10:14;;;;;;;1999.90;999.90;;;31.60;93.10;;;;;;5024101;28;20033;-77
2023/05/30 10:12:43;;;;;;;1999.90;999.90;;;32.00;93.70;;;;;;5022256;28;20486;-75
2023/05/30 10:15:12;;;;;;;1999.90;999.90;;;32.30;93.20;;;;;;5024521;28;20075;-76
2023/05/30 10:17:45;;;;;;;1999.90;999.90;;;32.50;93.90;;;;;;5025942;28;20037;-76
2023/05/30 10:20:12;;;;;;;1999.90;999.90;;;32.70;92.90;;;;;;5021035;28;20126;-76
2023/05/30 10:22:42;;;;;;;1999.90;999.90;;;32.50;92.70;;;;;;5009552;28;20531;-76
2023/05/30 10:25:09;;;;;;;1999.90;999.90;;;32.20;93.10;;;;;;5023659;28;20032;-76
2023/05/30 10:27:53;;;;;;;1999.90;999.90;;;32.60;93.00;;;;;;5027759;28;20061;-77
2023/05/30 10:30:23;;;;;;;1999.90;999.90;;;32.70;92.90;;;;;;5023336;28;20059;-78
2023/05/30 10:32:57;;;;;;;1999.90;999.90;;;32.60;92.60;;;;;;5025555;28;20045;-78
2023/05/30 10:35:23;;;;;;;1999.90;999.90;;;32.90;92.40;;;;;;5029166;28;20057;-77
2023/05/30 10:37:50;;;;;;;1999.90;999.90;;;32.70;93.10;;;;;;5022138;28;20025;-77
2023/05/30 10:40:27;;;;;;;1999.90;999.90;;;33.10;92.70;;;;;;5026560;28;20113;-79
2023/05/30 10:42:53;;;;;;;1999.90;999.90;;;32.70;91.60;;;;;;5020197;28;20025;-78
2023/05/30 10:45:27;;;;;;;1999.90;999.90;;;32.90;92.30;;;;;;5026580;28;20510;-81
2023/05/30 10:48:05;;;;;;;1999.90;999.90;;;32.50;91.60;;;;;;5025688;28;20053;-77
2023/05/30 10:50:39;;;;;;;1999.90;999.90;;;32.30;91.60;;;;;;5025599;28;20083;-79
2023/05/30 10:53:16;;;;;;;1999.90;999.90;;;32.50;91.90;;;;;;5017719;28;20037;-79
2023/05/30 10:55:43;;;;;;;1999.90;999.90;;;32.30;91.50;;;;;;5014431;28;20026;-78
2023/05/30 10:58:34;;;;;;;1999.90;999.90;;;33.00;92.30;;;;;;5020444;28;20030;-79
2023/05/30 11:01:26;;;;;;;1999.90;999.90;;;33.10;90.40;;;;;;5029227;28;20029;-78
2023/05/30 11:04:02;;;;;;;1999.90;999.90;;;33.00;90.50;;;;;;5028626;28;20037;-79
2023/05/30 11:06:38;;;;;;;1999.90;999.90;;;33.20;91.30;;;;;;5025105;28;20021;-79
2023/05/30 11:09:04;;;;;;;1999.90;999.90;;;33.00;91.30;;;;;;5014041;28;20379;-79
2023/05/30 11:11:40;;;;;;;1999.90;999.90;;;33.30;91.60;;;;;;5026105;28;20044;-79
2023/05/30 11:14:07;;;;;;;1999.90;999.90;;;33.10;90.40;;;;;;5030565;28;20064;-80
2023/05/30 11:16:48;;;;;;;1999.90;999.90;;;33.10;90.90;;;;;;5030102;28;20072;-79
2023/05/30 11:19:14;;;;;;;1999.90;999.90;;;32.90;91.80;;;;;;5028101;28;20524;-79
2023/05/30 11:22:00;;;;;;;1999.90;999.90;;;32.50;91.90;;;;;;5023378;28;20061;-80
2023/05/30 11:24:27;;;;;;;1999.90;999.90;;;33.10;91.30;;;;;;5028742;28;20473;-79
2023/05/30 11:26:57;;;;;;;1999.90;999.90;;;33.20;91.00;;;;;;5015271;28;20029;-79
2023/05/30 11:29:47;;;;;;;1999.90;999.90;;;33.30;90.90;;;;;;5027574;28;20038;-79
2023/05/30 11:32:20;;;;;;;1999.90;999.90;;;33.50;90.70;;;;;;5030320;28;20515;-78
2023/05/30 11:34:57;;;;;;;1999.90;999.90;;;32.80;90.50;;;;;;5037251;28;20056;-79
2023/05/30 11:37:22;;;;;;;1999.90;999.90;;;32.20;91.30;;;;;;5032095;28;20039;-79
2023/05/30 11:39:48;;;;;;;1999.90;999.90;;;32.30;91.10;;;;;;5035919;28;20021;-79
2023/05/30 11:42:13;;;;;;;1999.90;999.90;;;32.90;91.90;;;;;;5035785;28;20488;-79
2023/05/30 11:44:41;;;;;;;1999.90;999.90;;;33.50;91.40;;;;;;5028579;28;20104;-79
2023/05/30 11:47:10;;;;;;;1999.90;999.90;;;33.50;90.50;;;;;;5044892;28;20468;-79
2023/05/30 11:49:36;;;;;;;1999.90;999.90;;;33.50;91.40;;;;;;5029641;28;20112;-78
2023/05/30 11:52:02;;;;;;;1999.90;999.90;;;33.30;90.40;;;;;;5032223;28;20539;-77
2023/05/30 11:54:28;;;;;;;1999.90;999.90;;;33.10;91.00;;;;;;5026209;28;20091;-77
2023/05/30 11:56:56;;;;;;;1999.90;999.90;;;32.80;91.40;;;;;;5024229;28;20029;-77
2023/05/30 11:59:27;;;;;;;1999.90;999.90;;;32.80;90.70;;;;;;5035925;28;20065;-78
2023/05/30 12:02:01;;;;;;;1999.90;999.90;;;33.40;90.90;;;;;;5034898;28;20022;-79